Time;durP1;ratioP1;P1;durP2;ratioP2;P2;SDS_P1;SDS_P2;PMS_P1;PMS_P2;Temp;Humidity;BMP_temperature;BMP_pressure;BME280_temperature;BME280_humidity;BME280_pressure;Samples;Min_cycle;Max_cycle;Signal;HPM_P1;HPM_P2
2023/10/18 00:00:24;;;;;;;9.07;4.30;;;8.10;44.30;;;;;;5012938;28;20389;-75
2023/10/18 00:02:52;;;;;;;5.28;4.10;;;8.20;43.90;;;;;;4994961;28;20488;-73
2023/10/18 00:05:18;;;;;;;6.10;3.83;;;8.20;42.80;;;;;;5012671;28;20396;-73
2023/10/18 00:07:44;;;;;;;7.65;4.00;;;8.20;43.10;;;;;;5012699;28;20387;-74
2023/10/18 00:10:10;;;;;;;8.07;4.15;;;8.20;43.00;;;;;;5012496;28;20401;-74
2023/10/18 00:12:37;;;;;;;10.55;4.25;;;8.00;44.00;;;;;;5012690;28;20392;-73
2023/10/18 00:15:05;;;;;;;6.15;3.80;;;7.90;44.70;;;;;;5012829;28;20385;-73
2023/10/18 00:17:31;;;;;;;8.68;5.32;;;7.90;44.40;;;;;;5013831;28;20491;-73
2023/10/18 00:19:57;;;;;;;7.47;3.97;;;7.90;45.40;;;;;;5012213;28;20404;-73
2023/10/18 00:22:23;;;;;;;5.30;3.67;;;7.90;44.40;;;;;;5012372;28;20377;-74
2023/10/18 00:24:49;;;;;;;9.20;3.90;;;7.80;44.40;;;;;;5012105;28;20699;-74
2023/10/18 00:27:14;;;;;;;6.53;3.93;;;8.00;43.60;;;;;;5012084;28;20392;-74
2023/10/18 00:29:40;;;;;;;9.30;4.57;;;8.00;43.80;;;;;;4995030;28;20392;-73
2023/10/18 00:32:05;;;;;;;10.30;5.10;;;8.00;44.10;;;;;;4994360;28;20400;-72
2023/10/18 00:34:32;;;;;;;5.87;4.40;;;7.90;44.00;;;;;;5012612;28;20426;-73
2023/10/18 00:36:59;;;;;;;7.18;4.13;;;8.10;42.90;;;;;;5011850;28;20408;-73
2023/10/18 00:39:27;;;;;;;6.47;4.30;;;8.10;42.80;;;;;;5011896;28;20393;-73
2023/10/18 00:42:23;;;;;;;7.22;4.60;;;8.10;42.80;;;;;;5012241;28;20396;-74
2023/10/18 00:44:41;;;;;;;9.82;4.93;;;8.10;43.00;;;;;;5011932;28;20397;-73
2023/10/18 00:47:10;;;;;;;6.07;4.23;;;8.00;43.10;;;;;;5012449;28;20395;-73
2023/10/18 00:49:36;;;;;;;6.43;4.23;;;8.10;42.50;;;;;;5012114;28;20395;-73
2023/10/18 00:52:01;;;;;;;7.20;4.30;;;8.20;42.30;;;;;;5021916;28;20458;-72
2023/10/18 00:54:29;;;;;;;9.60;5.27;;;8.10;42.10;;;;;;5035369;28;20397;-72
2023/10/18 00:56:55;;;;;;;8.45;4.70;;;8.20;42.90;;;;;;5035583;28;20428;-72
2023/10/18 00:59:21;;;;;;;8.75;4.25;;;8.20;42.10;;;;;;5035237;28;20397;-72
2023/10/18 01:02:05;;;;;;;10.27;4.33;;;8.20;42.60;;;;;;5018758;28;20403;-71
2023/10/18 01:04:34;;;;;;;7.85;4.40;;;8.20;41.70;;;;;;5036430;28;20395;-71
2023/10/18 01:07:11;;;;;;;8.73;4.57;;;8.00;43.30;;;;;;5034241;28;20744;-73
2023/10/18 01:09:37;;;;;;;8.25;3.90;;;8.00;42.90;;;;;;5031152;28;20445;-73
2023/10/18 01:12:03;;;;;;;7.60;4.20;;;8.10;42.10;;;;;;5033605;28;20384;-71
2023/10/18 01:14:28;;;;;;;8.63;4.78;;;8.00;43.20;;;;;;5019027;28;20448;-72
2023/10/18 01:16:54;;;;;;;9.07;4.50;;;7.90;44.10;;;;;;5036155;28;20431;-72
2023/10/18 01:19:20;;;;;;;4.10;3.40;;;7.80;43.60;;;;;;5035637;28;20400;-71
2023/10/18 01:21:45;;;;;;;9.27;5.00;;;7.90;43.30;;;;;;5035447;28;20483;-73
2023/10/18 01:24:14;;;;;;;6.93;4.20;;;8.00;42.60;;;;;;5018444;28;20389;-71
2023/10/18 01:26:40;;;;;;;7.60;4.05;;;7.90;42.80;;;;;;5035737;28;20418;-72
2023/10/18 01:29:09;;;;;;;9.60;4.80;;;7.90;43.80;;;;;;5035949;28;20408;-72
2023/10/18 01:31:36;;;;;;;8.52;4.70;;;8.00;43.60;;;;;;5019524;28;20413;-72
2023/10/18 01:34:05;;;;;;;7.97;4.30;;;8.00;43.70;;;;;;4994393;28;20393;-73
2023/10/18 01:36:33;;;;;;;8.20;3.65;;;8.00;42.90;;;;;;5011259;28;20813;-73
2023/10/18 01:38:59;;;;;;;8.18;4.00;;;8.00;42.50;;;;;;5011414;28;20388;-74
2023/10/18 01:41:25;;;;;;;7.60;4.00;;;8.10;42.30;;;;;;5011761;28;20384;-71
2023/10/18 01:44:07;;;;;;;7.40;4.30;;;7.90;42.60;;;;;;5010688;28;20403;-74
2023/10/18 01:46:37;;;;;;;9.63;4.30;;;7.90;43.00;;;;;;5011033;28;20852;-74
2023/10/18 01:49:04;;;;;;;6.40;4.22;;;8.00;42.30;;;;;;5011374;28;20388;-72
2023/10/18 01:51:30;;;;;;;5.10;4.10;;;7.90;43.20;;;;;;5010796;28;20381;-74
2023/10/18 01:53:55;;;;;;;9.50;4.50;;;8.00;42.40;;;;;;5011017;28;20396;-74
2023/10/18 01:56:21;;;;;;;7.87;3.90;;;7.90;43.10;;;;;;5010895;28;20496;-73
2023/10/18 01:58:49;;;;;;;6.88;4.22;;;7.90;42.60;;;;;;5010856;28;20380;-72
2023/10/18 02:01:16;;;;;;;6.93;4.70;;;7.90;43.00;;;;;;5010918;28;20607;-73
2023/10/18 02:03:44;;;;;;;7.28;4.32;;;7.90;43.30;;;;;;5010282;28;20385;-73
2023/10/18 02:06:13;;;;;;;6.47;3.90;;;8.00;42.40;;;;;;5011783;28;20555;-73
2023/10/18 02:08:40;;;;;;;10.52;4.32;;;7.90;42.70;;;;;;5014621;28;20871;-73
2023/10/18 02:11:07;;;;;;;6.75;4.68;;;7.90;42.70;;;;;;4996695;28;20400;-74
2023/10/18 02:13:33;;;;;;;7.47;3.90;;;7.80;43.50;;;;;;5014327;28;20393;-74
2023/10/18 02:15:58;;;;;;;6.57;4.40;;;7.80;43.10;;;;;;5014495;28;20388;-74
2023/10/18 02:18:26;;;;;;;6.13;4.25;;;7.80;43.60;;;;;;4996669;28;20381;-74
2023/10/18 02:20:52;;;;;;;10.45;4.22;;;7.90;43.10;;;;;;5014372;28;20875;-74
2023/10/18 02:23:21;;;;;;;10.93;5.80;;;7.80;43.20;;;;;;5014022;28;20423;-74
2023/10/18 02:25:47;;;;;;;4.90;3.70;;;7.70;44.80;;;;;;5014215;28;20398;-74
2023/10/18 02:28:24;;;;;;;7.07;3.70;;;7.60;45.40;;;;;;5013864;28;20517;-74
2023/10/18 02:31:10;;;;;;;8.48;4.15;;;7.50;45.90;;;;;;5014220;28;20385;-74
2023/10/18 02:33:42;;;;;;;14.77;6.05;;;7.60;45.50;;;;;;4996065;28;20415;-74
2023/10/18 02:36:11;;;;;;;9.95;4.85;;;7.40;45.80;;;;;;5014015;28;20802;-73
2023/10/18 02:38:41;;;;;;;9.70;4.47;;;7.40;46.60;;;;;;5013754;28;20428;-74
2023/10/18 02:43:54;;;;;;;9.55;4.20;;;7.50;45.80;;;;;;5013636;28;20392;-74
2023/10/18 02:46:23;;;;;;;13.63;7.63;;;7.50;45.70;;;;;;5013645;28;20389;-73
2023/10/18 02:48:56;;;;;;;8.27;5.85;;;7.50;45.00;;;;;;5013867;28;20396;-74
2023/10/18 02:51:24;;;;;;;5.60;4.13;;;7.50;44.80;;;;;;5014066;28;20415;-73
2023/10/18 02:54:00;;;;;;;8.95;4.65;;;7.50;44.80;;;;;;5014027;28;20763;-74
2023/10/18 02:56:32;;;;;;;6.53;4.20;;;7.60;45.00;;;;;;5014215;28;20401;-75
2023/10/18 02:59:06;;;;;;;6.17;3.87;;;7.50;45.00;;;;;;5016315;28;20599;-74
2023/10/18 03:01:34;;;;;;;8.82;4.63;;;7.50;44.80;;;;;;5015133;28;20463;-74
2023/10/18 03:04:00;;;;;;;8.90;3.83;;;7.50;44.80;;;;;;5013379;28;20824;-74
2023/10/18 03:06:28;;;;;;;5.50;3.85;;;7.40;44.70;;;;;;5013574;28;20380;-74
2023/10/18 03:08:58;;;;;;;9.35;3.97;;;7.40;44.60;;;;;;5013605;28;20385;-74
2023/10/18 03:11:24;;;;;;;6.93;4.00;;;7.30;45.40;;;;;;5013498;28;20728;-74
2023/10/18 03:13:51;;;;;;;8.40;4.50;;;7.20;45.90;;;;;;4996012;28;20900;-73
2023/10/18 03:16:27;;;;;;;6.67;3.83;;;7.20;46.40;;;;;;5013976;28;20911;-73
2023/10/18 03:18:53;;;;;;;9.83;4.37;;;7.50;44.80;;;;;;5012346;28;20533;-74
2023/10/18 03:21:22;;;;;;;7.57;4.10;;;7.50;44.50;;;;;;5013446;28;20473;-73
2023/10/18 03:23:51;;;;;;;6.88;4.10;;;7.60;43.50;;;;;;5013311;28;20872;-73
2023/10/18 03:26:33;;;;;;;8.13;4.90;;;7.60;43.60;;;;;;5013231;28;20544;-73
2023/10/18 03:29:01;;;;;;;7.43;4.70;;;7.80;44.20;;;;;;4995458;28;20439;-73
2023/10/18 03:31:27;;;;;;;6.65;5.07;;;7.90;43.60;;;;;;5012943;28;20403;-73
2023/10/18 03:33:59;;;;;;;9.55;5.20;;;7.80;44.00;;;;;;5012890;28;20839;-72
2023/10/18 03:36:26;;;;;;;14.50;5.95;;;7.60;45.80;;;;;;5012961;28;20499;-72
2023/10/18 03:39:00;;;;;;;13.83;6.60;;;7.50;46.40;;;;;;5013052;28;20909;-72
2023/10/18 03:41:25;;;;;;;11.30;5.77;;;7.30;47.40;;;;;;5015202;28;20440;-73
2023/10/18 03:44:03;;;;;;;14.20;6.43;;;7.10;50.30;;;;;;5014139;28;20463;-72
2023/10/18 03:46:29;;;;;;;12.10;6.73;;;7.20;50.30;;;;;;5013001;28;20426;-73
2023/10/18 03:48:56;;;;;;;11.88;6.70;;;7.10;51.20;;;;;;5012975;28;20500;-72
2023/10/18 03:51:24;;;;;;;11.55;7.50;;;7.00;51.30;;;;;;5012830;28;20377;-72
2023/10/18 03:53:54;;;;;;;10.40;7.13;;;6.80;53.40;;;;;;5012284;28;20392;-72
2023/10/18 03:56:22;;;;;;;14.32;7.22;;;6.60;55.90;;;;;;5012763;28;20421;-74
2023/10/18 03:59:00;;;;;;;9.80;7.53;;;6.70;56.00;;;;;;5012600;28;20755;-74
2023/10/18 04:01:28;;;;;;;10.65;7.30;;;6.50;57.40;;;;;;5012904;28;20373;-74
2023/10/18 04:03:54;;;;;;;14.10;7.60;;;6.30;59.70;;;;;;5012535;28;20389;-74
2023/10/18 04:06:27;;;;;;;13.75;7.20;;;6.40;59.50;;;;;;5012531;28;20420;-73
2023/10/18 04:08:58;;;;;;;13.85;8.05;;;6.40;59.40;;;;;;5012671;28;20396;-72
2023/10/18 04:11:26;;;;;;;11.77;8.00;;;6.30;59.20;;;;;;4994803;28;20388;-74
2023/10/18 04:13:51;;;;;;;11.38;7.80;;;6.30;60.10;;;;;;5012087;28;20476;-74
2023/10/18 04:16:18;;;;;;;12.13;8.10;;;6.00;63.10;;;;;;5012328;28;20483;-73
2023/10/18 04:18:44;;;;;;;16.27;8.10;;;6.00;64.30;;;;;;5011942;28;20399;-73
2023/10/18 04:21:15;;;;;;;11.38;7.53;;;6.00;63.30;;;;;;5012189;28;20381;-73
2023/10/18 04:23:49;;;;;;;15.50;8.27;;;6.00;64.20;;;;;;5012054;28;20384;-73
2023/10/18 04:26:21;;;;;;;14.38;8.55;;;6.20;62.90;;;;;;4994343;28;20476;-73
2023/10/18 04:28:48;;;;;;;10.57;7.83;;;6.10;62.20;;;;;;5011869;28;20584;-73
2023/10/18 04:31:14;;;;;;;13.68;8.45;;;5.80;64.50;;;;;;5011862;28;20439;-73
2023/10/18 04:33:54;;;;;;;9.90;6.97;;;6.10;62.00;;;;;;5011560;28;21023;-73
2023/10/18 04:36:23;;;;;;;12.30;7.93;;;6.20;61.50;;;;;;5011554;28;20440;-73
2023/10/18 04:38:51;;;;;;;13.43;7.82;;;6.30;58.60;;;;;;4994752;28;20443;-72
2023/10/18 04:43:46;;;;;;;12.18;7.05;;;6.40;57.20;;;;;;5012198;28;20385;-73
2023/10/18 04:51:29;;;;;;;12.32;7.40;;;6.40;56.50;;;;;;5011528;28;20441;-73
2023/10/18 04:54:03;;;;;;;12.05;7.32;;;6.40;56.60;;;;;;5011137;28;20380;-72
2023/10/18 04:56:34;;;;;;;10.27;7.15;;;6.20;57.60;;;;;;5011222;28;20476;-73
2023/10/18 05:04:34;;;;;;;10.82;6.90;;;6.20;57.10;;;;;;5011048;28;20418;-73
2023/10/18 05:07:14;;;;;;;13.90;7.10;;;6.30;56.20;;;;;;5011316;28;20931;-73
2023/10/18 05:09:43;;;;;;;19.83;7.80;;;6.20;57.10;;;;;;5011213;28;20842;-73
2023/10/18 05:14:50;;;;;;;21.77;8.02;;;6.20;57.60;;;;;;5011249;28;20415;-74
2023/10/18 05:17:22;;;;;;;17.15;8.00;;;6.30;56.50;;;;;;5014525;28;20788;-74
2023/10/18 05:19:49;;;;;;;23.73;8.88;;;6.10;57.50;;;;;;5011124;28;20441;-72
2023/10/18 05:22:20;;;;;;;15.93;8.60;;;6.30;56.30;;;;;;5011051;28;20408;-74
2023/10/18 05:27:46;;;;;;;17.77;7.80;;;6.20;57.50;;;;;;5011393;28;20797;-73
2023/10/18 05:30:16;;;;;;;18.80;9.00;;;5.90;59.00;;;;;;5011137;28;20412;-73
2023/10/18 05:35:27;;;;;;;17.35;8.43;;;5.80;62.60;;;;;;5010311;28;20517;-74
2023/10/18 05:37:59;;;;;;;16.48;8.32;;;5.70;63.70;;;;;;5010876;28;20746;-74
2023/10/18 05:43:05;;;;;;;19.23;9.00;;;5.80;61.40;;;;;;5010563;28;20480;-73
2023/10/18 05:45:32;;;;;;;20.65;8.60;;;5.70;63.70;;;;;;5010472;28;20388;-73
2023/10/18 05:48:02;;;;;;;16.02;8.40;;;5.60;66.10;;;;;;5010825;28;20467;-72
2023/10/18 05:50:34;;;;;;;17.92;8.63;;;5.50;67.20;;;;;;5011013;28;20859;-73
2023/10/18 05:53:06;;;;;;;17.10;8.38;;;5.50;68.70;;;;;;5010550;28;20768;-73
2023/10/18 05:55:32;;;;;;;18.63;8.85;;;5.50;70.00;;;;;;5010599;28;20420;-73
2023/10/18 05:58:04;;;;;;;16.25;9.18;;;5.40;70.40;;;;;;5010637;28;20416;-73
2023/10/18 06:00:32;;;;;;;18.02;9.00;;;5.40;70.70;;;;;;5011692;28;20442;-73
2023/10/18 06:02:59;;;;;;;15.47;8.83;;;5.50;70.50;;;;;;5013048;28;20431;-73
2023/10/18 06:05:27;;;;;;;17.25;9.43;;;5.50;69.50;;;;;;4992576;28;20392;-73
2023/10/18 06:07:53;;;;;;;16.40;8.55;;;5.60;69.10;;;;;;5011207;28;20388;-74
2023/10/18 06:10:23;;;;;;;19.57;9.20;;;5.70;68.20;;;;;;5010677;28;20501;-73
2023/10/18 06:12:49;;;;;;;24.13;9.82;;;5.70;66.70;;;;;;5010362;28;20396;-72
2023/10/18 06:15:19;;;;;;;18.67;9.50;;;5.80;65.80;;;;;;5010911;28;20393;-73
2023/10/18 06:20:23;;;;;;;15.37;8.80;;;5.70;67.90;;;;;;5010030;28;20487;-73
2023/10/18 06:22:50;;;;;;;17.23;8.93;;;5.70;67.90;;;;;;5009842;28;20828;-72
2023/10/18 06:25:34;;;;;;;14.57;8.50;;;5.70;68.60;;;;;;5010056;28;20392;-73
2023/10/18 06:28:00;;;;;;;19.25;8.82;;;5.80;68.30;;;;;;5010688;28;20454;-73
2023/10/18 06:30:25;;;;;;;15.32;8.65;;;6.10;65.50;;;;;;5010120;28;20519;-73
2023/10/18 06:32:51;;;;;;;12.90;8.80;;;6.20;62.60;;;;;;5010399;28;20396;-73
2023/10/18 06:35:17;;;;;;;14.38;8.93;;;6.20;62.20;;;;;;5010211;28;20479;-74
2023/10/18 06:37:44;;;;;;;14.57;8.38;;;6.30;62.00;;;;;;5010688;28;20470;-73
2023/10/18 06:43:03;;;;;;;17.48;8.80;;;6.40;60.50;;;;;;5010753;28;20735;-74
2023/10/18 06:45:33;;;;;;;15.38;8.77;;;6.30;61.00;;;;;;5010648;28;20468;-74
2023/10/18 06:47:59;;;;;;;18.83;9.10;;;6.40;61.20;;;;;;5010578;28;20430;-74
2023/10/18 06:50:28;;;;;;;12.80;7.97;;;6.40;60.90;;;;;;5010445;28;20399;-74
2023/10/18 06:52:54;;;;;;;15.63;8.00;;;6.50;60.90;;;;;;5012419;28;20394;-74
2023/10/18 06:55:35;;;;;;;26.80;10.73;;;6.80;56.90;;;;;;5013749;28;20700;-74
2023/10/18 06:58:12;;;;;;;20.87;8.40;;;6.70;57.10;;;;;;5014084;28;20523;-74
2023/10/18 07:00:43;;;;;;;26.25;10.00;;;6.80;57.70;;;;;;5013540;28;20456;-73
2023/10/18 07:03:16;;;;;;;17.40;9.70;;;6.80;57.70;;;;;;5013467;28;20381;-73
2023/10/18 07:05:44;;;;;;;16.38;8.48;;;6.90;56.30;;;;;;5013354;28;20450;-73
2023/10/18 07:08:18;;;;;;;20.25;8.60;;;7.20;54.90;;;;;;5013286;28;20401;-72
2023/10/18 07:10:57;;;;;;;25.30;9.40;;;7.40;53.00;;;;;;5013743;28;20782;-74
2023/10/18 07:13:38;;;;;;;23.98;9.63;;;7.30;53.40;;;;;;5012103;28;20827;-73
2023/10/18 07:16:06;;;;;;;19.20;9.80;;;7.50;52.40;;;;;;5012593;28;20903;-73
2023/10/18 07:18:35;;;;;;;18.80;8.65;;;7.60;51.60;;;;;;5013350;28;20435;-73
2023/10/18 07:21:05;;;;;;;18.83;8.70;;;8.00;48.70;;;;;;5013290;28;20403;-72
2023/10/18 07:23:39;;;;;;;15.50;8.20;;;8.20;47.10;;;;;;5012846;28;20385;-73
2023/10/18 07:26:13;;;;;;;16.88;7.50;;;8.40;46.00;;;;;;5012724;28;20483;-73
2023/10/18 07:28:40;;;;;;;16.13;7.30;;;8.60;43.90;;;;;;5012442;28;20788;-73
2023/10/18 07:31:09;;;;;;;15.25;7.60;;;8.70;43.80;;;;;;5012951;28;20393;-72
2023/10/18 07:33:41;;;;;;;29.20;9.25;;;8.90;42.40;;;;;;5012632;28;20517;-73
2023/10/18 07:36:18;;;;;;;20.70;8.00;;;9.10;41.10;;;;;;5010488;28;20408;-73
2023/10/18 07:38:47;;;;;;;16.08;7.20;;;9.10;41.20;;;;;;5010699;28;20393;-73
2023/10/18 07:41:13;;;;;;;13.38;7.80;;;9.30;40.70;;;;;;5011890;28;20420;-73
2023/10/18 07:43:41;;;;;;;18.70;8.68;;;9.30;42.00;;;;;;5010561;28;20401;-72
2023/10/18 07:46:10;;;;;;;18.33;8.57;;;9.40;42.10;;;;;;5010699;28;20400;-71
2023/10/18 07:48:45;;;;;;;26.52;9.80;;;9.60;40.20;;;;;;4990783;28;20480;-72
2023/10/18 07:51:23;;;;;;;12.93;7.57;;;9.80;38.70;;;;;;5010735;28;20855;-73
2023/10/18 07:53:53;;;;;;;20.70;8.43;;;9.90;38.90;;;;;;5009807;28;20819;-73
2023/10/18 07:56:27;;;;;;;17.07;7.67;;;10.10;37.70;;;;;;5009711;28;21023;-73
2023/10/18 07:58:53;;;;;;;14.00;7.23;;;10.20;37.70;;;;;;5010415;28;20487;-72
2023/10/18 08:04:04;;;;;;;21.77;8.20;;;10.30;37.80;;;;;;5009896;28;20395;-72
2023/10/18 08:06:33;;;;;;;11.13;7.28;;;10.40;37.70;;;;;;5010745;28;20399;-73
2023/10/18 08:09:03;;;;;;;17.97;6.87;;;10.40;37.50;;;;;;5011616;28;20401;-73
2023/10/18 08:11:32;;;;;;;16.75;6.90;;;10.80;35.20;;;;;;5010630;28;20791;-74
2023/10/18 08:13:58;;;;;;;10.97;6.60;;;10.90;33.70;;;;;;5010516;28;20384;-74
2023/10/18 08:16:27;;;;;;;11.10;6.70;;;11.00;32.60;;;;;;5010172;28;20409;-72
2023/10/18 08:18:53;;;;;;;13.48;7.28;;;11.20;31.80;;;;;;5010087;28;20467;-74
2023/10/18 08:21:37;;;;;;;11.10;6.65;;;11.30;31.60;;;;;;5011017;28;20392;-74
2023/10/18 08:24:25;;;;;;;12.43;7.47;;;11.50;30.70;;;;;;5010660;28;20381;-74
2023/10/18 08:26:52;;;;;;;10.65;6.85;;;11.50;30.30;;;;;;4991323;28;20398;-73
2023/10/18 08:29:18;;;;;;;15.00;7.22;;;11.70;30.00;;;;;;5002093;28;20429;-74
2023/10/18 08:31:55;;;;;;;10.23;6.45;;;11.90;29.20;;;;;;5011623;28;20498;-74
2023/10/18 08:34:23;;;;;;;89.43;54.20;;;12.10;28.30;;;;;;5010925;28;20400;-74
2023/10/18 08:37:01;;;;;;;182.52;109.28;;;12.20;28.90;;;;;;5010862;28;20457;-74
2023/10/18 08:39:26;;;;;;;47.93;27.73;;;12.40;28.60;;;;;;5009966;28;20393;-73
2023/10/18 08:42:12;;;;;;;116.20;63.47;;;12.60;27.10;;;;;;5009893;28;20397;-73
2023/10/18 08:44:39;;;;;;;13.70;8.30;;;12.70;27.00;;;;;;5009703;28;20875;-73
2023/10/18 08:49:50;;;;;;;12.27;6.50;;;12.90;27.90;;;;;;5008790;28;20396;-73
2023/10/18 08:52:20;;;;;;;12.07;6.60;;;13.00;25.10;;;;;;5028517;28;20403;-74
2023/10/18 08:54:48;;;;;;;13.35;6.95;;;13.00;24.10;;;;;;5027325;28;20405;-73
2023/10/18 08:57:24;;;;;;;10.30;6.70;;;13.00;24.30;;;;;;5033450;28;20512;-76
2023/10/18 08:59:51;;;;;;;10.48;5.90;;;13.10;24.60;;;;;;5035474;28;20447;-76
2023/10/18 09:02:18;;;;;;;13.93;6.90;;;13.00;24.90;;;;;;5033946;28;20797;-75
2023/10/18 09:04:52;;;;;;;11.53;7.10;;;13.00;25.10;;;;;;5025950;28;20475;-72
2023/10/18 09:07:21;;;;;;;11.68;6.85;;;13.10;24.50;;;;;;5024277;28;20430;-73
2023/10/18 09:09:58;;;;;;;10.32;6.70;;;13.20;24.30;;;;;;5027394;28;20418;-73
2023/10/18 09:13:08;;;;;;;9.75;6.70;;;13.30;24.40;;;;;;5027717;28;20397;-73
2023/10/18 09:15:41;;;;;;;16.45;8.18;;;13.30;23.60;;;;;;5020691;28;20443;-74
2023/10/18 09:18:07;;;;;;;10.45;6.60;;;13.20;24.30;;;;;;5028171;28;20444;-74
2023/10/18 09:20:37;;;;;;;10.13;6.40;;;13.40;23.40;;;;;;5031848;28;20393;-75
2023/10/18 09:23:14;;;;;;;12.43;7.07;;;13.40;23.40;;;;;;5033540;28;20536;-73
2023/10/18 09:28:25;;;;;;;11.32;6.82;;;13.60;23.00;;;;;;5032042;28;20468;-74
2023/10/18 09:31:03;;;;;;;14.27;6.43;;;13.80;22.20;;;;;;5033509;28;20404;-75
2023/10/18 09:33:33;;;;;;;10.00;6.20;;;13.90;21.60;;;;;;5033237;28;20527;-75
2023/10/18 09:36:01;;;;;;;13.10;6.40;;;13.90;21.20;;;;;;5020551;28;20393;-75
2023/10/18 09:38:39;;;;;;;14.85;7.85;;;14.10;21.20;;;;;;5013056;28;20758;-75
2023/10/18 09:41:05;;;;;;;12.50;6.53;;;14.20;21.50;;;;;;5012334;28;20407;-75
2023/10/18 09:43:32;;;;;;;11.38;6.43;;;14.30;20.70;;;;;;5011789;28;20468;-75
2023/10/18 09:45:59;;;;;;;11.95;6.10;;;14.20;21.00;;;;;;5012556;28;20484;-75
2023/10/18 09:48:26;;;;;;;11.50;6.50;;;14.20;21.00;;;;;;5012312;28;20423;-75
2023/10/18 09:50:54;;;;;;;10.65;6.40;;;14.40;20.70;;;;;;5012176;28;20389;-75
2023/10/18 09:53:25;;;;;;;12.52;6.85;;;14.40;20.30;;;;;;5011649;28;20384;-74
2023/10/18 09:55:53;;;;;;;13.32;6.50;;;14.40;20.00;;;;;;5011599;28;20822;-75
2023/10/18 09:58:19;;;;;;;18.55;6.35;;;14.40;19.70;;;;;;5011484;28;20409;-75
2023/10/18 10:00:57;;;;;;;12.88;6.20;;;14.50;19.70;;;;;;5011712;28;20464;-75
2023/10/18 10:03:24;;;;;;;12.40;6.40;;;14.60;19.60;;;;;;4993331;28;20583;-75
2023/10/18 10:05:50;;;;;;;15.65;6.82;;;14.70;19.70;;;;;;5010839;28;20439;-75
2023/10/18 10:08:23;;;;;;;10.45;5.88;;;14.80;19.60;;;;;;5010659;28;20389;-73
2023/10/18 10:10:49;;;;;;;10.30;6.00;;;14.90;19.50;;;;;;5011365;28;20385;-75
2023/10/18 10:13:19;;;;;;;10.27;5.60;;;14.90;19.10;;;;;;5010701;28;20389;-75
2023/10/18 10:15:54;;;;;;;12.50;6.00;;;15.10;19.30;;;;;;5011313;28;20396;-75
2023/10/18 10:18:26;;;;;;;15.23;6.63;;;15.30;19.10;;;;;;5010642;28;20488;-75
2023/10/18 10:20:54;;;;;;;12.60;6.05;;;15.20;19.00;;;;;;5011401;28;20471;-75
2023/10/18 10:23:20;;;;;;;9.77;5.90;;;15.30;19.00;;;;;;5011208;28;20396;-74
2023/10/18 10:26:12;;;;;;;10.98;5.90;;;15.30;18.80;;;;;;5011597;28;20483;-74
2023/10/18 10:31:55;;;;;;;19.00;6.80;;;15.40;18.70;;;;;;5015048;28;20396;-75
2023/10/18 10:34:32;;;;;;;13.40;7.20;;;15.60;18.30;;;;;;5014597;28;20531;-74
2023/10/18 10:37:12;;;;;;;13.05;5.82;;;15.60;17.50;;;;;;4998556;28;20408;-75
2023/10/18 10:39:49;;;;;;;9.75;5.70;;;15.60;18.20;;;;;;5015049;28;20385;-75
2023/10/18 10:42:41;;;;;;;10.80;5.60;;;15.50;18.40;;;;;;5002232;28;20385;-75
2023/10/18 10:45:23;;;;;;;9.93;5.63;;;15.50;17.90;;;;;;5018060;28;20393;-75
2023/10/18 10:47:50;;;;;;;9.07;5.10;;;15.50;18.00;;;;;;5016915;28;20883;-75
2023/10/18 10:50:42;;;;;;;8.85;5.30;;;15.50;17.40;;;;;;5018579;28;20393;-75
2023/10/18 10:53:11;;;;;;;12.60;5.20;;;15.40;17.70;;;;;;5016540;28;20516;-75
2023/10/18 10:55:38;;;;;;;11.32;5.07;;;15.50;17.70;;;;;;5016539;28;20392;-75
2023/10/18 10:58:16;;;;;;;8.77;4.15;;;15.50;17.90;;;;;;5013496;28;21117;-75
2023/10/18 11:01:05;;;;;;;8.60;4.57;;;15.50;17.20;;;;;;4997561;28;20400;-74
2023/10/18 11:03:33;;;;;;;9.40;4.55;;;15.50;17.50;;;;;;5013245;28;20498;-74
2023/10/18 11:05:59;;;;;;;7.38;4.50;;;15.50;17.10;;;;;;5013141;28;20381;-74
2023/10/18 11:08:29;;;;;;;11.30;5.18;;;15.50;17.30;;;;;;5013596;28;20472;-74
2023/10/18 11:10:57;;;;;;;9.98;5.30;;;15.50;18.10;;;;;;5013262;28;20447;-74
2023/10/18 11:13:25;;;;;;;16.33;4.68;;;15.60;17.40;;;;;;5012965;28;20475;-74
2023/10/18 11:15:54;;;;;;;10.82;4.00;;;15.60;17.90;;;;;;5013079;28;20471;-75
2023/10/18 11:18:20;;;;;;;12.60;4.20;;;15.50;17.40;;;;;;5012780;28;20396;-74
2023/10/18 11:23:33;;;;;;;5.95;3.53;;;15.70;17.80;;;;;;5013367;28;20548;-74
2023/10/18 11:25:59;;;;;;;10.27;4.10;;;15.80;17.30;;;;;;5013095;28;20389;-76
2023/10/18 11:28:29;;;;;;;7.17;3.80;;;15.90;17.10;;;;;;4995422;28;20389;-75
2023/10/18 11:30:56;;;;;;;11.60;4.30;;;16.00;16.30;;;;;;5013646;28;20392;-76
2023/10/18 11:33:54;;;;;;;5.70;3.70;;;16.00;17.10;;;;;;5012692;28;20416;-74
2023/10/18 11:36:20;;;;;;;9.00;3.88;;;16.10;16.50;;;;;;4995757;28;20405;-76
2023/10/18 11:41:34;;;;;;;7.47;3.40;;;16.20;16.10;;;;;;5012868;28;20392;-75
2023/10/18 11:44:07;;;;;;;5.97;3.55;;;16.30;16.30;;;;;;5012976;28;20389;-75
2023/10/18 11:46:47;;;;;;;23.23;4.43;;;16.40;15.90;;;;;;5012937;28;20385;-75
2023/10/18 11:49:14;;;;;;;9.10;3.90;;;16.50;15.80;;;;;;5012977;28;20396;-75
2023/10/18 11:51:44;;;;;;;6.15;3.83;;;16.50;15.50;;;;;;5013364;28;20856;-75
2023/10/18 11:54:12;;;;;;;4.93;3.30;;;16.50;15.40;;;;;;5012854;28;20423;-74
2023/10/18 11:56:38;;;;;;;6.20;3.30;;;16.50;15.50;;;;;;4994652;28;20413;-74
2023/10/18 11:59:05;;;;;;;8.85;3.60;;;16.70;15.60;;;;;;5013039;28;20392;-75
2023/10/18 12:01:33;;;;;;;6.65;3.40;;;16.70;15.60;;;;;;5012688;28;20915;-74
2023/10/18 12:03:59;;;;;;;7.10;3.50;;;16.90;15.00;;;;;;5013646;28;20415;-75
2023/10/18 12:06:25;;;;;;;9.40;3.75;;;16.80;15.20;;;;;;5013232;28;20887;-75
2023/10/18 12:09:25;;;;;;;15.82;4.07;;;16.90;15.60;;;;;;5012736;28;20389;-75
2023/10/18 12:11:52;;;;;;;5.38;3.00;;;17.00;14.80;;;;;;5012380;28;20400;-75
2023/10/18 12:14:18;;;;;;;6.65;3.50;;;17.30;14.00;;;;;;5012258;28;20389;-75
2023/10/18 12:16:44;;;;;;;6.90;3.10;;;17.30;13.60;;;;;;5013661;28;20472;-74
2023/10/18 12:19:10;;;;;;;5.28;3.10;;;17.40;13.00;;;;;;5012761;28;20401;-75
2023/10/18 12:21:39;;;;;;;7.72;3.70;;;17.40;13.50;;;;;;5012528;28;20396;-75
2023/10/18 12:24:07;;;;;;;9.98;3.05;;;17.40;13.60;;;;;;5012412;28;20396;-74
2023/10/18 12:26:37;;;;;;;6.65;3.15;;;17.40;12.60;;;;;;5012719;28;20482;-75
2023/10/18 12:29:05;;;;;;;4.93;3.00;;;17.30;13.00;;;;;;5012293;28;20467;-76
2023/10/18 12:31:38;;;;;;;4.85;2.65;;;17.20;12.70;;;;;;5012385;28;20395;-74
2023/10/18 12:34:08;;;;;;;5.22;3.00;;;17.20;13.50;;;;;;5011899;28;20435;-75
2023/10/18 12:36:38;;;;;;;6.28;2.95;;;17.20;12.90;;;;;;5012767;28;20420;-74
2023/10/18 12:39:09;;;;;;;7.95;3.22;;;17.20;13.00;;;;;;5013404;28;20837;-75
2023/10/18 12:41:44;;;;;;;3.70;2.88;;;17.20;13.40;;;;;;5014351;28;20464;-74
2023/10/18 12:44:18;;;;;;;8.18;3.05;;;17.20;13.40;;;;;;5013135;28;20384;-74
2023/10/18 12:46:44;;;;;;;15.07;3.60;;;17.20;13.40;;;;;;5013495;28;20403;-75
2023/10/18 12:49:11;;;;;;;5.18;2.60;;;17.20;13.30;;;;;;5012278;28;20388;-75
2023/10/18 12:51:49;;;;;;;3.58;2.50;;;17.20;12.60;;;;;;5012580;28;20779;-75
2023/10/18 12:54:29;;;;;;;5.23;2.87;;;17.30;12.60;;;;;;4997535;28;20439;-75
2023/10/18 12:57:09;;;;;;;7.43;3.13;;;17.30;13.10;;;;;;5014299;28;20427;-74
2023/10/18 13:05:07;;;;;;;4.72;2.80;;;17.30;13.30;;;;;;5018170;28;20419;-75
2023/10/18 13:07:36;;;;;;;7.07;3.20;;;17.50;14.00;;;;;;5025336;28;20381;-75
2023/10/18 13:10:11;;;;;;;4.57;2.75;;;17.60;13.70;;;;;;5031013;28;20389;-75
2023/10/18 13:12:51;;;;;;;7.75;2.90;;;17.50;13.20;;;;;;5032815;28;20369;-74
2023/10/18 13:15:17;;;;;;;7.93;3.35;;;17.60;13.00;;;;;;5032529;28;20388;-74
2023/10/18 13:17:43;;;;;;;6.20;3.10;;;17.50;12.80;;;;;;5027459;28;21075;-75
2023/10/18 13:20:13;;;;;;;8.90;3.00;;;17.60;13.20;;;;;;5017482;28;20451;-75
2023/10/18 13:22:39;;;;;;;14.30;3.45;;;17.60;12.90;;;;;;5012727;28;20376;-74
2023/10/18 13:25:25;;;;;;;6.40;2.80;;;17.70;13.60;;;;;;5012002;28;20930;-76
2023/10/18 13:27:53;;;;;;;15.57;4.35;;;17.80;13.50;;;;;;5012149;28;20392;-75
2023/10/18 13:33:11;;;;;;;6.18;2.90;;;18.00;13.30;;;;;;5012786;28;20395;-74
2023/10/18 13:35:39;;;;;;;4.57;2.53;;;18.10;12.60;;;;;;5013431;28;20393;-74
2023/10/18 13:38:05;;;;;;;6.70;2.60;;;18.00;11.90;;;;;;5011988;28;20504;-75
2023/10/18 13:40:36;;;;;;;5.93;2.50;;;17.90;12.80;;;;;;4993693;28;20473;-74
2023/10/18 13:43:06;;;;;;;6.22;2.92;;;17.90;12.90;;;;;;5012672;28;20388;-75
2023/10/18 13:45:33;;;;;;;5.80;2.67;;;18.00;13.00;;;;;;4994553;28;20467;-75
2023/10/18 13:47:59;;;;;;;6.40;2.80;;;18.00;13.00;;;;;;5015785;28;20385;-76
2023/10/18 13:50:26;;;;;;;3.88;2.80;;;18.00;13.10;;;;;;5013819;28;20421;-75
2023/10/18 13:52:52;;;;;;;9.20;2.50;;;18.20;13.00;;;;;;5011813;28;20400;-74
2023/10/18 13:55:20;;;;;;;5.32;2.67;;;18.00;13.40;;;;;;5011060;28;20397;-76
2023/10/18 13:57:46;;;;;;;6.50;2.70;;;18.20;13.20;;;;;;5010674;28;20504;-75
2023/10/18 14:00:14;;;;;;;7.60;2.75;;;18.30;13.10;;;;;;5011118;28;20860;-74